createdAt,value
2023-01-21T00:00:21.591Z,989.3
2023-01-21T00:02:23.378Z,989.3
2023-01-21T00:04:25.175Z,989.3
2023-01-21T00:06:26.404Z,989.3
2023-01-21T00:08:28.358Z,989.4
2023-01-21T00:11:14.328Z,989.4
2023-01-21T00:13:15.856Z,989.4
2023-01-21T00:15:17.942Z,989.4
2023-01-21T00:17:19.526Z,989.4
2023-01-21T00:19:21.683Z,989.5
2023-01-21T00:21:23.374Z,989.4
2023-01-21T00:23:25.433Z,989.4
2023-01-21T00:25:27.397Z,989.5
2023-01-21T00:27:29.096Z,989.6
2023-01-21T00:29:30.441Z,989.5
2023-01-21T00:31:31.735Z,989.7
2023-01-21T00:33:33.119Z,989.7
2023-01-21T00:35:34.969Z,989.6
2023-01-21T00:37:36.909Z,989.6
2023-01-21T00:39:38.831Z,989.8
2023-01-21T00:43:41.643Z,989.7
2023-01-21T00:45:43.450Z,989.8
2023-01-21T00:47:45.575Z,989.7
2023-01-21T00:49:47.637Z,989.8
2023-01-21T00:51:49.235Z,989.9
2023-01-21T00:53:51.328Z,989.8
2023-01-21T00:55:53.551Z,989.9
2023-01-21T00:57:55.320Z,989.8
2023-01-21T00:59:56.718Z,989.9
2023-01-21T01:01:58.472Z,989.8
2023-01-21T01:03:59.946Z,989.9
2023-01-21T01:06:01.421Z,989.9
2023-01-21T01:08:02.579Z,990
2023-01-21T01:10:04.120Z,990
2023-01-21T01:12:05.966Z,990
2023-01-21T01:14:07.217Z,990
2023-01-21T01:16:09.076Z,990
2023-01-21T01:18:11.120Z,990.1
2023-01-21T01:20:12.854Z,990.2
2023-01-21T01:22:14.335Z,990.1
2023-01-21T01:24:16.176Z,990.1
2023-01-21T01:26:17.822Z,990.2
2023-01-21T01:28:19.854Z,990.2
2023-01-21T01:30:21.525Z,990.2
2023-01-21T01:32:22.666Z,990.2
2023-01-21T01:34:24.579Z,990.1
2023-01-21T01:36:25.612Z,990.2
2023-01-21T01:38:27.658Z,990.4
2023-01-21T01:40:29.693Z,990.3
2023-01-21T01:42:31.062Z,990.2
2023-01-21T01:44:32.405Z,990.2
2023-01-21T01:46:34.382Z,990.2
2023-01-21T01:48:35.749Z,990.3
2023-01-21T01:50:37.183Z,990.3
2023-01-21T01:52:38.811Z,990.3
2023-01-21T01:54:40.072Z,990.3
2023-01-21T01:56:41.558Z,990.3
2023-01-21T01:58:43.488Z,990.3
2023-01-21T02:00:45.192Z,990.4
2023-01-21T02:02:47.219Z,990.3
2023-01-21T02:04:48.811Z,990.3
2023-01-21T02:08:51.386Z,990.4
2023-01-21T02:10:52.574Z,990.4
2023-01-21T02:12:54.384Z,990.5
2023-01-21T02:14:55.747Z,990.5
2023-01-21T02:18:58.399Z,990.5
2023-01-21T02:21:00.335Z,990.5
2023-01-21T02:23:01.966Z,990.5
2023-01-21T02:25:03.266Z,990.7
2023-01-21T02:27:05.246Z,990.6
2023-01-21T02:29:06.816Z,990.6
2023-01-21T02:31:08.445Z,990.6
2023-01-21T02:33:18.099Z,990.6
2023-01-21T02:35:11.351Z,990.5
2023-01-21T02:37:12.937Z,990.5
2023-01-21T02:39:14.787Z,990.8
2023-01-21T02:41:16.185Z,990.7
2023-01-21T02:43:18.221Z,990.7
2023-01-21T02:45:19.796Z,990.8
2023-01-21T02:47:20.924Z,990.8
2023-01-21T02:51:24.426Z,990.8
2023-01-21T02:53:25.621Z,990.7
2023-01-21T02:55:26.844Z,990.7
2023-01-21T02:57:28.558Z,990.8
2023-01-21T03:01:31.698Z,990.7
2023-01-21T03:03:33.493Z,990.7
2023-01-21T03:05:35.456Z,990.7
2023-01-21T03:07:36.992Z,990.8
2023-01-21T03:09:39.077Z,990.8
2023-01-21T03:11:40.810Z,990.7
2023-01-21T03:13:42.249Z,990.7
2023-01-21T03:15:43.390Z,990.7
2023-01-21T03:17:45.182Z,990.7
2023-01-21T03:19:46.764Z,990.7
2023-01-21T03:21:48.063Z,990.7
2023-01-21T03:23:49.453Z,990.6
2023-01-21T03:25:51.508Z,990.7
2023-01-21T03:27:54.526Z,990.8
2023-01-21T03:29:55.584Z,990.7
2023-01-21T03:33:59.102Z,990.6
2023-01-21T03:36:00.938Z,990.5
2023-01-21T03:38:02.793Z,990.6
2023-01-21T03:40:04.739Z,990.6
2023-01-21T03:42:13.977Z,990.5
2023-01-21T03:44:07.933Z,990.4
2023-01-21T03:46:09.630Z,990.5
2023-01-21T03:48:11.342Z,990.4
2023-01-21T03:50:13.116Z,990.6
2023-01-21T03:52:14.491Z,990.6
2023-01-21T03:54:16.678Z,990.5
2023-01-21T03:56:18.420Z,990.5
2023-01-21T03:58:19.797Z,990.5
2023-01-21T04:00:21.559Z,990.6
2023-01-21T04:02:23.435Z,990.7
2023-01-21T04:04:24.903Z,990.6
2023-01-21T04:06:26.727Z,990.5
2023-01-21T04:08:28.509Z,990.5
2023-01-21T04:10:29.714Z,990.6
2023-01-21T04:12:31.027Z,990.6
2023-01-21T04:16:34.083Z,990.6
2023-01-21T04:18:35.160Z,990.6
2023-01-21T04:20:36.402Z,990.6
2023-01-21T04:22:37.586Z,990.6
2023-01-21T04:26:41.101Z,990.7
2023-01-21T04:28:42.510Z,990.6
2023-01-21T04:30:44.547Z,990.6
2023-01-21T04:32:45.652Z,990.6
2023-01-21T04:34:47.167Z,990.7
2023-01-21T04:36:48.302Z,990.6
2023-01-21T04:38:49.574Z,990.5
2023-01-21T04:40:51.095Z,990.6
2023-01-21T04:42:52.324Z,990.6
2023-01-21T04:44:54.224Z,990.5
2023-01-21T04:46:55.414Z,990.5
2023-01-21T04:48:56.930Z,990.7
2023-01-21T04:50:58.350Z,990.5
2023-01-21T04:52:59.803Z,990.7
2023-01-21T04:55:01.342Z,990.6
2023-01-21T04:57:02.746Z,990.6
2023-01-21T04:59:04.343Z,990.6
2023-01-21T05:01:06.408Z,990.6
2023-01-21T05:03:08.452Z,990.7
2023-01-21T05:05:09.813Z,990.7
2023-01-21T05:07:11.936Z,990.7
2023-01-21T05:09:13.757Z,990.7
2023-01-21T05:11:14.992Z,990.6
2023-01-21T05:15:18.147Z,990.7
2023-01-21T05:17:19.303Z,990.8
2023-01-21T05:19:20.676Z,990.8
2023-01-21T05:21:22.649Z,990.8
2023-01-21T05:23:24.175Z,990.7
2023-01-21T05:25:25.611Z,990.8
2023-01-21T05:27:26.807Z,990.8
2023-01-21T05:29:28.401Z,990.7
2023-01-21T05:31:29.792Z,990.8
2023-01-21T05:33:31.395Z,990.8
2023-01-21T05:35:32.897Z,990.7
2023-01-21T05:37:34.100Z,990.8
2023-01-21T05:39:35.415Z,990.7
2023-01-21T05:41:36.545Z,990.9
2023-01-21T05:43:37.859Z,990.8
2023-01-21T05:45:39.395Z,990.9
2023-01-21T05:47:49.376Z,990.9
2023-01-21T05:49:42.855Z,990.9
2023-01-21T05:51:43.969Z,991
2023-01-21T05:53:45.969Z,990.8
2023-01-21T05:55:47.604Z,990.9
2023-01-21T05:57:49.384Z,991
2023-01-21T05:59:50.573Z,990.9
2023-01-21T06:01:52.595Z,991
2023-01-21T06:03:54.096Z,990.9
2023-01-21T06:05:55.221Z,991
2023-01-21T06:07:57.008Z,991
2023-01-21T06:09:58.165Z,990.9
2023-01-21T06:14:01.367Z,991.1
2023-01-21T06:16:02.855Z,991.1
2023-01-21T06:18:04.209Z,991
2023-01-21T06:20:05.646Z,991.1
2023-01-21T06:22:07.585Z,991.1
2023-01-21T06:24:09.076Z,991.1
2023-01-21T06:26:10.382Z,991.1
2023-01-21T06:28:11.999Z,991.2
2023-01-21T06:30:13.617Z,991.1
2023-01-21T06:32:14.801Z,991.2
2023-01-21T06:34:16.327Z,991.1
2023-01-21T06:36:18.391Z,991.2
2023-01-21T06:38:20.421Z,991.1
2023-01-21T06:40:21.655Z,991.2
2023-01-21T06:42:23.011Z,991.2
2023-01-21T06:44:24.870Z,991.3
2023-01-21T06:46:26.244Z,991.2
2023-01-21T06:48:27.354Z,991.3
2023-01-21T06:50:29.325Z,991.4
2023-01-21T06:52:31.052Z,991.4
2023-01-21T06:54:32.333Z,991.4
2023-01-21T06:57:18.315Z,991.4
2023-01-21T06:59:20.060Z,991.3
2023-01-21T07:01:22.133Z,991.4
2023-01-21T07:03:23.268Z,991.4
2023-01-21T07:05:25.237Z,991.4
2023-01-21T07:07:26.779Z,991.5
2023-01-21T07:09:28.536Z,991.5
2023-01-21T07:11:30.088Z,991.4
2023-01-21T07:13:31.551Z,991.4
2023-01-21T07:15:33.257Z,991.5
2023-01-21T07:17:35.241Z,991.5
2023-01-21T07:19:36.632Z,991.5
2023-01-21T07:23:40.097Z,991.6
2023-01-21T07:25:41.835Z,991.5
2023-01-21T07:27:43.044Z,991.5
2023-01-21T07:29:44.901Z,991.5
2023-01-21T07:31:46.592Z,991.5
2023-01-21T07:33:48.341Z,991.5
2023-01-21T07:35:49.999Z,991.5
2023-01-21T07:37:51.399Z,991.4
2023-01-21T07:39:54.544Z,991.6
2023-01-21T07:41:54.479Z,991.5
2023-01-21T07:43:56.012Z,991.6
2023-01-21T07:45:59.981Z,991.5
2023-01-21T07:47:58.956Z,991.6
2023-01-21T07:50:00.596Z,991.6
2023-01-21T07:52:02.073Z,991.6
2023-01-21T07:54:03.529Z,991.6
2023-01-21T07:56:05.421Z,991.6
2023-01-21T07:58:06.985Z,991.6
2023-01-21T08:00:08.266Z,991.7
2023-01-21T08:02:09.664Z,991.7
2023-01-21T08:06:12.369Z,991.7
2023-01-21T08:08:13.496Z,991.7
2023-01-21T08:10:15.579Z,991.7
2023-01-21T08:12:17.370Z,991.9
2023-01-21T08:14:19.357Z,991.7
2023-01-21T08:16:21.272Z,991.8
2023-01-21T08:18:22.569Z,991.7
2023-01-21T08:20:24.415Z,991.8
2023-01-21T08:22:25.632Z,991.8
2023-01-21T08:24:27.220Z,991.7
2023-01-21T08:26:28.565Z,991.7
2023-01-21T08:28:29.854Z,991.7
2023-01-21T08:30:31.446Z,991.6
2023-01-21T08:32:33.390Z,991.7
2023-01-21T08:34:35.174Z,991.8
2023-01-21T08:36:36.692Z,991.8
2023-01-21T08:38:38.398Z,991.8
2023-01-21T08:40:39.706Z,991.7
2023-01-21T08:42:41.194Z,991.7
2023-01-21T08:44:42.557Z,991.8
2023-01-21T08:48:46.021Z,991.8
2023-01-21T08:50:47.331Z,991.9
2023-01-21T08:52:48.763Z,992
2023-01-21T08:54:50.916Z,991.8
2023-01-21T08:56:52.557Z,991.9
2023-01-21T08:58:54.346Z,991.8
2023-01-21T09:00:56.054Z,991.9
2023-01-21T09:02:57.731Z,991.8
2023-01-21T09:04:58.977Z,991.9
2023-01-21T09:07:00.534Z,991.9
2023-01-21T09:09:01.771Z,992
2023-01-21T09:11:03.254Z,992
2023-01-21T09:13:04.611Z,992
2023-01-21T09:15:06.147Z,991.9
2023-01-21T09:17:07.527Z,992
2023-01-21T09:19:08.969Z,992
2023-01-21T09:21:10.273Z,991.9
2023-01-21T09:23:11.645Z,992
2023-01-21T09:25:13.608Z,991.9
2023-01-21T09:27:14.936Z,992
2023-01-21T09:31:18.149Z,992.1
2023-01-21T09:33:19.581Z,992.1
2023-01-21T09:35:20.843Z,992.1
2023-01-21T09:37:22.415Z,992.1
2023-01-21T09:39:24.371Z,992.1
2023-01-21T09:41:26.215Z,992.1
2023-01-21T09:43:27.283Z,992.1
2023-01-21T09:45:28.856Z,992.1
2023-01-21T09:47:30.116Z,992.2
2023-01-21T09:49:31.511Z,992.2
2023-01-21T09:51:33.379Z,992.2
2023-01-21T09:53:34.720Z,992.1
2023-01-21T09:55:36.584Z,992.2
2023-01-21T09:57:38.301Z,992.2
2023-01-21T09:59:40.358Z,992.2
2023-01-21T10:01:42.152Z,992.2
2023-01-21T10:03:43.545Z,992.1
2023-01-21T10:05:45.419Z,992.2
2023-01-21T10:07:47.260Z,992.2
2023-01-21T10:09:48.974Z,992.3
2023-01-21T10:13:52.745Z,992.3
2023-01-21T10:15:54.200Z,992.4
2023-01-21T10:17:55.717Z,992.3
2023-01-21T10:19:57.646Z,992.3
2023-01-21T10:21:59.044Z,992.4
2023-01-21T10:24:00.296Z,992.3
2023-01-21T10:26:01.950Z,992.4
2023-01-21T10:28:02.989Z,992.3
2023-01-21T10:30:07.379Z,992.4
2023-01-21T10:32:06.240Z,992.4
2023-01-21T10:34:07.527Z,992.3
2023-01-21T10:36:09.270Z,992.4
2023-01-21T10:38:10.671Z,992.3
2023-01-21T10:40:12.407Z,992.4
2023-01-21T10:42:14.139Z,992.3
2023-01-21T10:44:15.250Z,992.3
2023-01-21T10:46:17.052Z,992.4
2023-01-21T10:48:18.282Z,992.3
2023-01-21T10:50:19.889Z,992.3
2023-01-21T10:52:21.842Z,992.3
2023-01-21T10:54:23.863Z,992.3
2023-01-21T10:56:25.520Z,992.3
2023-01-21T10:58:27.069Z,992.2
2023-01-21T11:00:28.423Z,992.2
2023-01-21T11:02:29.917Z,992.3
2023-01-21T11:04:31.733Z,992.3
2023-01-21T11:06:33.280Z,992.3
2023-01-21T11:08:34.337Z,992.2
2023-01-21T11:10:35.606Z,992.3
2023-01-21T11:12:37.190Z,992.3
2023-01-21T11:14:38.575Z,992.3
2023-01-21T11:16:40.382Z,992.3
2023-01-21T11:18:42.162Z,992.3
2023-01-21T11:22:45.790Z,992.3
2023-01-21T11:24:47.462Z,992.3
2023-01-21T11:26:49.029Z,992.4
2023-01-21T11:28:50.201Z,992.3
2023-01-21T11:32:53.782Z,992.2
2023-01-21T11:34:54.964Z,992.2
2023-01-21T11:36:56.424Z,992.3
2023-01-21T11:38:57.686Z,992.2
2023-01-21T11:40:59.656Z,992.2
2023-01-21T11:43:01.657Z,992.2
2023-01-21T11:45:03.095Z,992.3
2023-01-21T11:47:04.222Z,992.2
2023-01-21T11:49:06.238Z,992.2
2023-01-21T11:51:08.117Z,992.2
2023-01-21T11:53:09.665Z,992.1
2023-01-21T11:55:11.599Z,992.1
2023-01-21T11:57:13.209Z,992.2
2023-01-21T11:59:14.448Z,992.1
2023-01-21T12:01:15.933Z,992.2
2023-01-21T12:05:19.436Z,992
2023-01-21T12:07:21.039Z,992.1
2023-01-21T12:09:22.482Z,992
2023-01-21T12:11:24.460Z,992.1
2023-01-21T12:15:27.368Z,992.1
2023-01-21T12:17:28.419Z,992
2023-01-21T12:19:29.558Z,992
2023-01-21T12:21:31.010Z,992
2023-01-21T12:23:32.724Z,992
2023-01-21T12:25:34.246Z,992.1
2023-01-21T12:27:36.124Z,991.9
2023-01-21T12:29:37.884Z,992
2023-01-21T12:31:39.339Z,992
2023-01-21T12:33:41.142Z,991.9
2023-01-21T12:35:42.955Z,992.1
2023-01-21T12:37:44.163Z,992.1
2023-01-21T12:39:45.485Z,992
2023-01-21T12:41:46.900Z,992.1
2023-01-21T12:43:48.845Z,992.1
2023-01-21T12:45:50.841Z,992
2023-01-21T12:47:52.567Z,992
2023-01-21T12:49:54.501Z,992
2023-01-21T12:53:57.794Z,992
2023-01-21T12:58:01.203Z,992
2023-01-21T13:00:02.682Z,992
2023-01-21T13:02:04.414Z,992
2023-01-21T13:04:05.625Z,992
2023-01-21T13:06:07.632Z,992.1
2023-01-21T13:08:09.132Z,992
2023-01-21T13:10:10.516Z,992.1
2023-01-21T13:12:11.944Z,992.1
2023-01-21T13:14:13.926Z,992.1
2023-01-21T13:16:15.702Z,992.1
2023-01-21T13:18:17.239Z,992.2
2023-01-21T13:20:18.686Z,992.3
2023-01-21T13:22:19.589Z,992.1
2023-01-21T13:24:21.179Z,992.2
2023-01-21T13:26:22.592Z,992.3
2023-01-21T13:28:23.944Z,992.4
2023-01-21T13:30:25.058Z,992.4
2023-01-21T13:32:26.515Z,992.4
2023-01-21T13:34:28.489Z,992.2
2023-01-21T13:36:30.494Z,992.3
2023-01-21T13:38:32.156Z,992.3
2023-01-21T13:40:34.060Z,992.3
2023-01-21T13:41:17.984Z,992.4
2023-01-21T13:45:20.734Z,992.3
2023-01-21T13:47:22.419Z,992.4
2023-01-21T13:49:23.562Z,992.3
2023-01-21T13:51:25.363Z,992.3
2023-01-21T13:53:27.380Z,992.3
2023-01-21T13:55:29.035Z,992.4
2023-01-21T13:57:30.707Z,992.3
2023-01-21T13:59:31.926Z,992.3
2023-01-21T14:01:33.176Z,992.2
2023-01-21T14:03:35.115Z,992.3
2023-01-21T14:05:36.728Z,992.3
2023-01-21T14:07:38.765Z,992.2
2023-01-21T14:09:39.900Z,992.2
2023-01-21T14:11:41.913Z,992.2
2023-01-21T14:13:43.699Z,992.3
2023-01-21T14:15:45.201Z,992.3
2023-01-21T14:17:46.092Z,992.3
2023-01-21T14:19:47.585Z,992.4
2023-01-21T14:23:51.047Z,992.3
2023-01-21T14:25:52.851Z,992.3
2023-01-21T14:27:54.847Z,992.4
2023-01-21T14:29:56.566Z,992.3
2023-01-21T14:31:57.719Z,992.5
2023-01-21T14:33:59.299Z,992.4
2023-01-21T14:36:00.475Z,992.4
2023-01-21T14:38:02.016Z,992.3
2023-01-21T14:40:03.532Z,992.3
2023-01-21T14:42:04.806Z,992.4
2023-01-21T14:44:05.757Z,992.4
2023-01-21T14:46:07.006Z,992.4
2023-01-21T14:48:09.176Z,992.3
2023-01-21T14:50:09.704Z,992.4
2023-01-21T14:52:11.499Z,992.3
2023-01-21T14:54:12.715Z,992.4
2023-01-21T14:56:15.973Z,992.3
2023-01-21T14:58:15.366Z,992.3
2023-01-21T15:00:17.720Z,992.3
2023-01-21T15:02:25.837Z,992.3
2023-01-21T15:04:19.647Z,992.3
2023-01-21T15:06:21.036Z,992.3
2023-01-21T15:08:22.390Z,992.3
2023-01-21T15:10:24.405Z,992.3
2023-01-21T15:12:25.503Z,992.4
2023-01-21T15:14:27.135Z,992.3
2023-01-21T15:16:28.875Z,992.3
2023-01-21T15:18:30.736Z,992.2
2023-01-21T15:22:34.672Z,992.3
2023-01-21T15:24:36.567Z,992.2
2023-01-21T15:26:38.270Z,992.3
2023-01-21T15:28:39.504Z,992.4
2023-01-21T15:30:54.175Z,992.4
2023-01-21T15:32:43.177Z,992.3
2023-01-21T15:34:45.165Z,992.4
2023-01-21T15:36:47.082Z,992.4
2023-01-21T15:38:48.472Z,992.5
2023-01-21T15:40:50.503Z,992.5
2023-01-21T15:42:52.128Z,992.5
2023-01-21T15:45:02.793Z,992.6
2023-01-21T15:46:55.323Z,992.6
2023-01-21T15:48:56.604Z,992.6
2023-01-21T15:50:57.785Z,992.6
2023-01-21T15:52:58.866Z,992.5
2023-01-21T15:54:59.954Z,992.6
2023-01-21T15:57:01.666Z,992.6
2023-01-21T15:59:03.399Z,992.5
2023-01-21T16:01:04.669Z,992.6
2023-01-21T16:05:08.043Z,992.5
2023-01-21T16:07:09.385Z,992.6
2023-01-21T16:09:11.125Z,992.4
2023-01-21T16:11:13.027Z,992.6
2023-01-21T16:13:14.111Z,992.5
2023-01-21T16:15:16.058Z,992.5
2023-01-21T16:17:17.412Z,992.5
2023-01-21T16:19:19.460Z,992.6
2023-01-21T16:21:21.316Z,992.5
2023-01-21T16:23:22.415Z,992.6
2023-01-21T16:25:23.912Z,992.5
2023-01-21T16:27:25.868Z,992.5
2023-01-21T16:29:26.931Z,992.6
2023-01-21T16:31:28.275Z,992.5
2023-01-21T16:33:29.699Z,992.5
2023-01-21T16:35:31.255Z,992.6
2023-01-21T16:37:32.696Z,992.7
2023-01-21T16:39:34.482Z,992.6
2023-01-21T16:41:35.559Z,992.7
2023-01-21T16:43:37.148Z,992.7
2023-01-21T16:45:39.146Z,992.7
2023-01-21T16:47:40.390Z,992.7
2023-01-21T16:49:43.386Z,992.7
2023-01-21T16:51:43.881Z,992.7
2023-01-21T16:53:45.873Z,992.6
2023-01-21T16:55:47.729Z,992.7
2023-01-21T16:57:49.776Z,992.7
2023-01-21T16:59:50.851Z,992.7
2023-01-21T17:01:52.119Z,992.8
2023-01-21T17:03:54.032Z,992.8
2023-01-21T17:05:55.547Z,992.7
2023-01-21T17:07:56.727Z,992.7
2023-01-21T17:09:58.654Z,992.8
2023-01-21T17:11:59.848Z,992.7
2023-01-21T17:14:01.558Z,992.8
2023-01-21T17:16:02.861Z,992.8
2023-01-21T17:18:04.011Z,992.7
2023-01-21T17:20:05.751Z,992.8
2023-01-21T17:22:07.666Z,992.8
2023-01-21T17:24:08.907Z,992.8
2023-01-21T17:26:10.115Z,992.8
2023-01-21T17:28:11.286Z,992.8
2023-01-21T17:30:12.647Z,992.8
2023-01-21T17:32:13.781Z,992.8
2023-01-21T17:34:15.741Z,992.8
2023-01-21T17:36:17.158Z,992.8
2023-01-21T17:38:18.787Z,992.8
2023-01-21T17:40:20.792Z,992.9
2023-01-21T17:42:21.943Z,992.9
2023-01-21T17:44:23.294Z,992.8
2023-01-21T17:46:25.295Z,992.8
2023-01-21T17:48:26.899Z,992.8
2023-01-21T17:50:28.776Z,992.8
2023-01-21T17:52:30.426Z,992.8
2023-01-21T17:56:33.294Z,992.8
2023-01-21T17:58:35.253Z,992.8
2023-01-21T18:00:36.706Z,992.8
2023-01-21T18:02:38.761Z,992.7
2023-01-21T18:06:41.341Z,992.8
2023-01-21T18:08:42.936Z,992.8
2023-01-21T18:10:44.508Z,992.8
2023-01-21T18:12:46.051Z,992.8
2023-01-21T18:14:47.307Z,992.7
2023-01-21T18:16:48.943Z,992.7
2023-01-21T18:18:50.028Z,992.7
2023-01-21T18:20:51.444Z,992.7
2023-01-21T18:22:52.561Z,992.7
2023-01-21T18:24:54.240Z,992.6
2023-01-21T18:26:55.519Z,992.7
2023-01-21T18:28:56.948Z,992.7
2023-01-21T18:30:59.059Z,992.7
2023-01-21T18:33:00.172Z,992.6
2023-01-21T18:35:01.548Z,992.6
2023-01-21T18:37:03.468Z,992.6
2023-01-21T18:39:05.358Z,992.6
2023-01-21T18:41:07.072Z,992.6
2023-01-21T18:43:09.016Z,992.7
2023-01-21T18:45:10.467Z,992.7
2023-01-21T18:47:11.717Z,992.7
2023-01-21T18:49:13.476Z,992.6
2023-01-21T18:51:15.083Z,992.6
2023-01-21T18:55:18.216Z,992.6
2023-01-21T18:57:19.018Z,992.6
2023-01-21T18:59:20.750Z,992.5
2023-01-21T19:01:23.991Z,992.6
2023-01-21T19:03:23.818Z,992.5
2023-01-21T19:05:25.866Z,992.5
2023-01-21T19:07:27.185Z,992.5
2023-01-21T19:09:29.210Z,992.4
2023-01-21T19:11:30.763Z,992.5
2023-01-21T19:13:31.870Z,992.4
2023-01-21T19:15:33.590Z,992.5
2023-01-21T19:17:34.902Z,992.4
2023-01-21T19:19:35.939Z,992.4
2023-01-21T19:21:37.598Z,992.3
2023-01-21T19:23:38.940Z,992.2
2023-01-21T19:25:40.247Z,992.3
2023-01-21T19:27:41.429Z,992.3
2023-01-21T19:29:42.775Z,992.3
2023-01-21T19:31:44.060Z,992.3
2023-01-21T19:33:45.754Z,992.3
2023-01-21T19:35:46.714Z,992.2
2023-01-21T19:37:48.577Z,992.3
2023-01-21T19:39:49.684Z,992.4
2023-01-21T19:42:00.173Z,992.3
2023-01-21T19:43:52.461Z,992.2
2023-01-21T19:45:53.902Z,992.3
2023-01-21T19:47:55.419Z,992.3
2023-01-21T19:49:56.520Z,992.3
2023-01-21T19:53:59.336Z,992.4
2023-01-21T19:56:01.062Z,992.3
2023-01-21T19:58:02.705Z,992.3
2023-01-21T20:00:03.987Z,992.3
2023-01-21T20:02:05.414Z,992.3
2023-01-21T20:04:07.316Z,992.2
2023-01-21T20:06:08.554Z,992.3
2023-01-21T20:08:10.507Z,992.4
2023-01-21T20:10:11.896Z,992.4
2023-01-21T20:12:13.476Z,992.3
2023-01-21T20:14:15.033Z,992.4
2023-01-21T20:16:16.479Z,992.3
2023-01-21T20:18:18.024Z,992.3
2023-01-21T20:20:19.130Z,992.4
2023-01-21T20:22:20.562Z,992.4
2023-01-21T20:24:22.538Z,992.4
2023-01-21T20:26:23.700Z,992.4
2023-01-21T20:27:08.645Z,992.3
2023-01-21T20:31:10.879Z,992.3
2023-01-21T20:33:12.008Z,992.3
2023-01-21T20:35:13.366Z,992.3
2023-01-21T20:37:14.712Z,992.2
2023-01-21T20:39:16.074Z,992.3
2023-01-21T20:41:17.667Z,992.2
2023-01-21T20:43:20.038Z,992.3
2023-01-21T20:45:20.237Z,992.2
2023-01-21T20:47:23.110Z,992.3
2023-01-21T20:49:22.974Z,992.2
2023-01-21T20:51:24.705Z,992.1
2023-01-21T20:53:25.878Z,992.2
2023-01-21T20:57:29.107Z,992.2
2023-01-21T20:59:30.321Z,992.2
2023-01-21T21:01:32.123Z,992.2
2023-01-21T21:03:33.616Z,992.1
2023-01-21T21:07:36.768Z,992.1
2023-01-21T21:09:37.843Z,992.1
2023-01-21T21:11:39.813Z,992.1
2023-01-21T21:13:41.311Z,992
2023-01-21T21:15:45.094Z,992
2023-01-21T21:17:44.319Z,992
2023-01-21T21:19:46.198Z,992
2023-01-21T21:21:48.097Z,992
2023-01-21T21:23:50.187Z,992
2023-01-21T21:25:51.587Z,991.9
2023-01-21T21:27:53.078Z,991.9
2023-01-21T21:29:54.987Z,992
2023-01-21T21:31:56.618Z,992
2023-01-21T21:33:57.824Z,992
2023-01-21T21:35:59.321Z,992
2023-01-21T21:38:00.768Z,992
2023-01-21T21:40:02.505Z,991.9
2023-01-21T21:42:04.496Z,992
2023-01-21T21:44:06.071Z,991.9
2023-01-21T21:46:07.535Z,991.9
2023-01-21T21:50:10.089Z,991.8
2023-01-21T21:52:11.515Z,991.8
2023-01-21T21:56:14.867Z,991.8
2023-01-21T21:58:16.659Z,991.8
2023-01-21T22:00:18.338Z,991.9
2023-01-21T22:02:20.066Z,991.8
2023-01-21T22:04:21.531Z,991.7
2023-01-21T22:06:22.697Z,991.8
2023-01-21T22:08:24.167Z,991.6
2023-01-21T22:10:26.054Z,991.7
2023-01-21T22:12:27.487Z,991.7
2023-01-21T22:14:29.048Z,991.7
2023-01-21T22:16:30.291Z,991.7
2023-01-21T22:18:31.554Z,991.7
2023-01-21T22:20:33.097Z,991.7
2023-01-21T22:22:35.098Z,991.8
2023-01-21T22:24:36.720Z,991.7
2023-01-21T22:26:38.159Z,991.7
2023-01-21T22:28:39.724Z,991.7
2023-01-21T22:30:41.081Z,991.7
2023-01-21T22:32:42.872Z,991.6
2023-01-21T22:34:43.969Z,991.7
2023-01-21T22:38:47.416Z,991.7
2023-01-21T22:40:48.909Z,991.8
2023-01-21T22:42:50.268Z,991.8
2023-01-21T22:44:51.454Z,991.7
2023-01-21T22:46:52.578Z,991.7
2023-01-21T22:48:53.729Z,991.7
2023-01-21T22:50:55.179Z,991.6
2023-01-21T22:52:56.450Z,991.7
2023-01-21T22:54:58.266Z,991.7
2023-01-21T22:57:00.141Z,991.7
2023-01-21T22:59:01.395Z,991.7
2023-01-21T23:01:02.589Z,991.6
2023-01-21T23:03:03.906Z,991.7
2023-01-21T23:05:05.289Z,991.5
2023-01-21T23:07:06.842Z,991.6
2023-01-21T23:09:09.567Z,991.5
2023-01-21T23:11:10.191Z,991.5
2023-01-21T23:13:12.185Z,991.6
2023-01-21T23:15:13.676Z,991.5
2023-01-21T23:17:15.635Z,991.5
2023-01-21T23:19:17.292Z,991.5
2023-01-21T23:21:18.855Z,991.4
2023-01-21T23:23:20.336Z,991.4
2023-01-21T23:25:22.238Z,991.4
2023-01-21T23:27:23.733Z,991.4
2023-01-21T23:29:25.404Z,991.4
2023-01-21T23:31:26.802Z,991.3
2023-01-21T23:33:28.619Z,991.5
2023-01-21T23:35:31.141Z,991.4
2023-01-21T23:37:31.812Z,991.3
2023-01-21T23:39:33.775Z,991.3
2023-01-21T23:41:35.043Z,991.3
2023-01-21T23:43:36.677Z,991.2
2023-01-21T23:47:39.761Z,991.4
2023-01-21T23:49:41.001Z,991.3
2023-01-21T23:51:42.756Z,991.3
2023-01-21T23:53:44.182Z,991.3
2023-01-21T23:55:45.735Z,991.2
2023-01-21T23:57:47.396Z,991.2
2023-01-21T23:59:49.407Z,991.2
